sensor_id;sensor_type;location;lat;lon;timestamp;P1;P2;P0
34176;PMS7003;20450;49.074;9.158;2024-01-30T00:00:00;58.00;47.33;32.67
34176;PMS7003;20450;49.074;9.158;2024-01-30T00:02:30;49.67;41.67;30.00
34176;PMS7003;20450;49.074;9.158;2024-01-30T00:04:58;53.00;43.00;30.33
34176;PMS7003;20450;49.074;9.158;2024-01-30T00:07:25;51.33;42.33;31.00
34176;PMS7003;20450;49.074;9.158;2024-01-30T00:09:54;56.67;45.67;31.00
34176;PMS7003;20450;49.074;9.158;2024-01-30T00:12:21;52.67;42.33;30.00
34176;PMS7003;20450;49.074;9.158;2024-01-30T00:14:48;53.00;43.00;30.00
34176;PMS7003;20450;49.074;9.158;2024-01-30T00:17:20;49.00;41.00;27.67
34176;PMS7003;20450;49.074;9.158;2024-01-30T00:19:47;56.00;45.33;31.00
34176;PMS7003;20450;49.074;9.158;2024-01-30T00:22:14;40.67;34.33;25.00
34176;PMS7003;20450;49.074;9.158;2024-01-30T00:24:41;43.00;36.00;24.67
34176;PMS7003;20450;49.074;9.158;2024-01-30T00:27:10;51.00;43.33;29.67
34176;PMS7003;20450;49.074;9.158;2024-01-30T00:29:37;53.00;42.67;30.00
34176;PMS7003;20450;49.074;9.158;2024-01-30T00:32:04;40.00;34.33;24.67
34176;PMS7003;20450;49.074;9.158;2024-01-30T00:34:32;57.67;47.33;32.00
34176;PMS7003;20450;49.074;9.158;2024-01-30T00:37:01;55.33;44.00;30.00
34176;PMS7003;20450;49.074;9.158;2024-01-30T00:39:28;63.67;48.67;36.00
34176;PMS7003;20450;49.074;9.158;2024-01-30T00:41:56;42.67;36.00;24.67
34176;PMS7003;20450;49.074;9.158;2024-01-30T00:44:25;45.33;37.00;26.67
34176;PMS7003;20450;49.074;9.158;2024-01-30T00:46:52;49.00;39.00;28.33
34176;PMS7003;20450;49.074;9.158;2024-01-30T00:49:19;47.33;40.00;28.67
34176;PMS7003;20450;49.074;9.158;2024-01-30T00:51:46;51.33;44.00;29.67
34176;PMS7003;20450;49.074;9.158;2024-01-30T00:54:13;48.33;40.67;29.00
34176;PMS7003;20450;49.074;9.158;2024-01-30T00:56:40;48.67;42.00;30.00
34176;PMS7003;20450;49.074;9.158;2024-01-30T00:59:07;50.33;43.33;29.00
34176;PMS7003;20450;49.074;9.158;2024-01-30T01:01:35;49.00;39.00;27.67
34176;PMS7003;20450;49.074;9.158;2024-01-30T01:04:02;53.00;41.67;29.67
34176;PMS7003;20450;49.074;9.158;2024-01-30T01:06:30;49.33;42.00;30.00
34176;PMS7003;20450;49.074;9.158;2024-01-30T01:08:57;49.67;40.67;29.00
34176;PMS7003;20450;49.074;9.158;2024-01-30T01:11:23;50.00;40.00;28.33
34176;PMS7003;20450;49.074;9.158;2024-01-30T01:13:50;52.67;43.67;29.67
34176;PMS7003;20450;49.074;9.158;2024-01-30T01:16:17;47.67;41.33;30.00
34176;PMS7003;20450;49.074;9.158;2024-01-30T01:18:46;51.00;42.00;30.00
34176;PMS7003;20450;49.074;9.158;2024-01-30T01:21:13;45.67;39.67;30.00
34176;PMS7003;20450;49.074;9.158;2024-01-30T01:23:40;49.33;41.67;29.33
34176;PMS7003;20450;49.074;9.158;2024-01-30T01:26:07;47.67;41.33;30.00
34176;PMS7003;20450;49.074;9.158;2024-01-30T01:28:39;44.00;38.67;29.67
34176;PMS7003;20450;49.074;9.158;2024-01-30T01:31:07;52.67;42.00;30.00
34176;PMS7003;20450;49.074;9.158;2024-01-30T01:33:34;51.33;41.67;30.33
34176;PMS7003;20450;49.074;9.158;2024-01-30T01:36:03;48.33;42.33;30.00
34176;PMS7003;20450;49.074;9.158;2024-01-30T01:38:33;51.33;42.00;29.33
34176;PMS7003;20450;49.074;9.158;2024-01-30T01:41:04;56.67;45.00;32.00
34176;PMS7003;20450;49.074;9.158;2024-01-30T01:43:33;52.67;44.00;30.00
34176;PMS7003;20450;49.074;9.158;2024-01-30T01:46:00;54.00;43.67;31.00
34176;PMS7003;20450;49.074;9.158;2024-01-30T01:48:28;55.00;44.33;30.33
34176;PMS7003;20450;49.074;9.158;2024-01-30T01:50:55;40.00;34.00;22.00
34176;PMS7003;20450;49.074;9.158;2024-01-30T01:53:23;20.33;18.33;11.00
34176;PMS7003;20450;49.074;9.158;2024-01-30T01:55:51;53.00;44.00;30.00
34176;PMS7003;20450;49.074;9.158;2024-01-30T01:58:20;49.00;40.67;29.00
34176;PMS7003;20450;49.074;9.158;2024-01-30T02:00:49;47.67;41.00;30.00
34176;PMS7003;20450;49.074;9.158;2024-01-30T02:03:18;49.00;41.33;29.00
34176;PMS7003;20450;49.074;9.158;2024-01-30T02:05:45;52.67;44.00;30.00
34176;PMS7003;20450;49.074;9.158;2024-01-30T02:08:12;52.67;43.67;30.67
34176;PMS7003;20450;49.074;9.158;2024-01-30T02:10:41;53.00;43.33;30.00
34176;PMS7003;20450;49.074;9.158;2024-01-30T02:13:08;50.67;42.33;30.00
34176;PMS7003;20450;49.074;9.158;2024-01-30T02:15:35;48.67;41.67;28.67
34176;PMS7003;20450;49.074;9.158;2024-01-30T02:18:02;13.00;8.00;0.00
34176;PMS7003;20450;49.074;9.158;2024-01-30T02:20:30;54.00;44.67;32.00
34176;PMS7003;20450;49.074;9.158;2024-01-30T02:23:05;48.67;41.67;30.00
34176;PMS7003;20450;49.074;9.158;2024-01-30T02:25:38;47.33;41.67;30.00
34176;PMS7003;20450;49.074;9.158;2024-01-30T02:28:07;51.00;42.00;30.00
34176;PMS7003;20450;49.074;9.158;2024-01-30T02:30:35;51.00;44.00;30.00
34176;PMS7003;20450;49.074;9.158;2024-01-30T02:33:02;51.67;41.00;29.00
34176;PMS7003;20450;49.074;9.158;2024-01-30T02:35:30;43.00;38.33;25.67
34176;PMS7003;20450;49.074;9.158;2024-01-30T02:37:58;50.33;42.33;29.33
34176;PMS7003;20450;49.074;9.158;2024-01-30T02:40:27;53.00;43.00;31.00
34176;PMS7003;20450;49.074;9.158;2024-01-30T02:42:54;50.00;41.67;29.33
34176;PMS7003;20450;49.074;9.158;2024-01-30T02:45:22;52.00;42.00;29.00
34176;PMS7003;20450;49.074;9.158;2024-01-30T02:47:49;51.33;38.33;26.33
34176;PMS7003;20450;49.074;9.158;2024-01-30T02:50:16;47.00;39.33;28.33
34176;PMS7003;20450;49.074;9.158;2024-01-30T02:52:43;50.00;41.33;29.33
34176;PMS7003;20450;49.074;9.158;2024-01-30T02:55:11;47.00;39.67;25.33
34176;PMS7003;20450;49.074;9.158;2024-01-30T02:57:39;48.67;41.33;29.00
34176;PMS7003;20450;49.074;9.158;2024-01-30T03:00:07;48.67;41.00;29.00
34176;PMS7003;20450;49.074;9.158;2024-01-30T03:02:35;52.33;42.33;29.00
34176;PMS7003;20450;49.074;9.158;2024-01-30T03:05:03;51.33;42.33;31.00
34176;PMS7003;20450;49.074;9.158;2024-01-30T03:07:33;52.33;43.00;30.00
34176;PMS7003;20450;49.074;9.158;2024-01-30T03:10:00;48.67;41.00;29.00
34176;PMS7003;20450;49.074;9.158;2024-01-30T03:12:27;49.67;38.67;27.67
34176;PMS7003;20450;49.074;9.158;2024-01-30T03:14:55;44.67;39.33;28.00
34176;PMS7003;20450;49.074;9.158;2024-01-30T03:17:23;52.67;43.67;29.00
34176;PMS7003;20450;49.074;9.158;2024-01-30T03:19:50;39.33;35.00;28.67
34176;PMS7003;20450;49.074;9.158;2024-01-30T03:22:17;45.00;39.00;29.00
34176;PMS7003;20450;49.074;9.158;2024-01-30T03:24:44;49.33;41.67;30.00
34176;PMS7003;20450;49.074;9.158;2024-01-30T03:27:13;50.67;42.00;29.33
34176;PMS7003;20450;49.074;9.158;2024-01-30T03:29:40;48.33;39.67;28.67
34176;PMS7003;20450;49.074;9.158;2024-01-30T03:32:09;48.00;39.33;28.33
34176;PMS7003;20450;49.074;9.158;2024-01-30T03:34:36;51.67;42.67;29.33
34176;PMS7003;20450;49.074;9.158;2024-01-30T03:37:04;55.00;42.00;30.33
34176;PMS7003;20450;49.074;9.158;2024-01-30T03:39:31;55.33;44.00;30.00
34176;PMS7003;20450;49.074;9.158;2024-01-30T03:41:58;52.67;43.67;30.00
34176;PMS7003;20450;49.074;9.158;2024-01-30T03:44:25;43.33;37.33;27.00
34176;PMS7003;20450;49.074;9.158;2024-01-30T03:46:52;49.00;40.33;29.33
34176;PMS7003;20450;49.074;9.158;2024-01-30T03:49:20;39.00;35.33;26.33
34176;PMS7003;20450;49.074;9.158;2024-01-30T03:51:47;40.67;35.00;26.00
34176;PMS7003;20450;49.074;9.158;2024-01-30T03:54:14;40.67;35.67;26.00
34176;PMS7003;20450;49.074;9.158;2024-01-30T03:56:42;37.00;32.33;23.67
34176;PMS7003;20450;49.074;9.158;2024-01-30T03:59:09;25.67;23.67;17.67
34176;PMS7003;20450;49.074;9.158;2024-01-30T04:01:36;36.33;34.33;24.33
34176;PMS7003;20450;49.074;9.158;2024-01-30T04:04:04;32.67;32.00;22.00
34176;PMS7003;20450;49.074;9.158;2024-01-30T04:06:32;37.00;34.00;25.33
34176;PMS7003;20450;49.074;9.158;2024-01-30T04:09:04;49.00;39.67;28.00
34176;PMS7003;20450;49.074;9.158;2024-01-30T04:11:32;42.00;36.00;26.00
34176;PMS7003;20450;49.074;9.158;2024-01-30T04:13:59;38.67;34.67;26.00
34176;PMS7003;20450;49.074;9.158;2024-01-30T04:16:26;45.33;37.33;26.33
34176;PMS7003;20450;49.074;9.158;2024-01-30T04:18:58;49.33;38.67;28.00
34176;PMS7003;20450;49.074;9.158;2024-01-30T04:21:25;42.67;36.67;28.00
34176;PMS7003;20450;49.074;9.158;2024-01-30T04:23:57;46.00;37.67;24.67
34176;PMS7003;20450;49.074;9.158;2024-01-30T04:26:24;51.00;41.00;29.00
34176;PMS7003;20450;49.074;9.158;2024-01-30T04:28:51;44.33;39.00;28.00
34176;PMS7003;20450;49.074;9.158;2024-01-30T04:31:18;38.33;35.00;25.67
34176;PMS7003;20450;49.074;9.158;2024-01-30T04:33:47;48.00;39.00;28.00
34176;PMS7003;20450;49.074;9.158;2024-01-30T04:36:14;39.00;36.00;26.00
34176;PMS7003;20450;49.074;9.158;2024-01-30T04:38:41;44.67;38.00;26.00
34176;PMS7003;20450;49.074;9.158;2024-01-30T04:41:10;50.67;41.67;29.67
34176;PMS7003;20450;49.074;9.158;2024-01-30T04:43:37;52.00;41.33;27.67
34176;PMS7003;20450;49.074;9.158;2024-01-30T04:46:11;52.67;42.67;30.00
34176;PMS7003;20450;49.074;9.158;2024-01-30T04:48:40;52.33;41.00;28.67
34176;PMS7003;20450;49.074;9.158;2024-01-30T04:51:07;48.33;39.00;28.00
34176;PMS7003;20450;49.074;9.158;2024-01-30T04:53:36;46.67;38.33;28.33
34176;PMS7003;20450;49.074;9.158;2024-01-30T04:56:04;48.00;40.67;29.33
34176;PMS7003;20450;49.074;9.158;2024-01-30T04:58:34;56.67;49.33;34.00
34176;PMS7003;20450;49.074;9.158;2024-01-30T05:01:02;47.33;35.33;25.67
34176;PMS7003;20450;49.074;9.158;2024-01-30T05:03:32;47.33;40.67;29.00
34176;PMS7003;20450;49.074;9.158;2024-01-30T05:06:00;53.00;42.67;30.00
34176;PMS7003;20450;49.074;9.158;2024-01-30T05:08:27;46.00;37.33;25.33
34176;PMS7003;20450;49.074;9.158;2024-01-30T05:10:55;24.33;21.33;11.67
34176;PMS7003;20450;49.074;9.158;2024-01-30T05:13:22;51.00;42.00;29.00
34176;PMS7003;20450;49.074;9.158;2024-01-30T05:15:50;49.67;42.00;28.67
34176;PMS7003;20450;49.074;9.158;2024-01-30T05:18:18;42.00;36.67;25.67
34176;PMS7003;20450;49.074;9.158;2024-01-30T05:20:45;51.00;44.00;30.00
34176;PMS7003;20450;49.074;9.158;2024-01-30T05:23:12;54.00;44.00;31.67
34176;PMS7003;20450;49.074;9.158;2024-01-30T05:25:40;50.00;39.67;28.00
34176;PMS7003;20450;49.074;9.158;2024-01-30T05:28:07;51.33;41.33;27.67
34176;PMS7003;20450;49.074;9.158;2024-01-30T05:30:34;41.67;36.33;25.00
34176;PMS7003;20450;49.074;9.158;2024-01-30T05:33:03;100.50;82.25;58.00
34176;PMS7003;20450;49.074;9.158;2024-01-30T05:35:30;55.75;45.50;32.75
34176;PMS7003;20450;49.074;9.158;2024-01-30T05:37:58;51.33;42.00;30.00
34176;PMS7003;20450;49.074;9.158;2024-01-30T05:40:25;34.67;30.00;23.67
34176;PMS7003;20450;49.074;9.158;2024-01-30T05:42:52;39.00;34.67;24.00
34176;PMS7003;20450;49.074;9.158;2024-01-30T05:45:19;55.33;46.00;34.33
34176;PMS7003;20450;49.074;9.158;2024-01-30T05:47:46;42.67;36.67;25.00
34176;PMS7003;20450;49.074;9.158;2024-01-30T05:50:15;43.33;35.00;24.67
34176;PMS7003;20450;49.074;9.158;2024-01-30T05:52:42;49.33;39.00;27.00
34176;PMS7003;20450;49.074;9.158;2024-01-30T05:55:11;48.33;40.67;29.33
34176;PMS7003;20450;49.074;9.158;2024-01-30T05:57:41;51.33;43.00;31.00
34176;PMS7003;20450;49.074;9.158;2024-01-30T06:00:08;49.33;38.33;26.33
34176;PMS7003;20450;49.074;9.158;2024-01-30T06:02:36;46.33;40.33;29.00
34176;PMS7003;20450;49.074;9.158;2024-01-30T06:05:04;49.67;40.67;29.00
34176;PMS7003;20450;49.074;9.158;2024-01-30T06:07:34;54.00;44.67;30.00
34176;PMS7003;20450;49.074;9.158;2024-01-30T06:10:03;53.00;41.00;29.00
34176;PMS7003;20450;49.074;9.158;2024-01-30T06:12:32;48.33;39.33;29.67
34176;PMS7003;20450;49.074;9.158;2024-01-30T06:15:00;51.00;41.67;30.00
34176;PMS7003;20450;49.074;9.158;2024-01-30T06:17:27;54.00;42.00;28.67
34176;PMS7003;20450;49.074;9.158;2024-01-30T06:19:55;49.33;41.67;29.67
34176;PMS7003;20450;49.074;9.158;2024-01-30T06:22:23;48.67;38.00;28.00
34176;PMS7003;20450;49.074;9.158;2024-01-30T06:24:52;49.67;40.67;30.00
34176;PMS7003;20450;49.074;9.158;2024-01-30T06:27:19;44.00;38.33;27.00
34176;PMS7003;20450;49.074;9.158;2024-01-30T06:29:47;34.67;32.33;23.33
34176;PMS7003;20450;49.074;9.158;2024-01-30T06:32:14;33.67;32.67;26.33
34176;PMS7003;20450;49.074;9.158;2024-01-30T06:34:41;36.00;32.67;25.00
34176;PMS7003;20450;49.074;9.158;2024-01-30T06:37:08;51.67;43.33;29.33
34176;PMS7003;20450;49.074;9.158;2024-01-30T06:39:35;55.67;41.67;29.00
34176;PMS7003;20450;49.074;9.158;2024-01-30T06:42:04;49.00;40.00;29.00
34176;PMS7003;20450;49.074;9.158;2024-01-30T06:44:31;48.67;39.33;29.00
34176;PMS7003;20450;49.074;9.158;2024-01-30T06:46:59;54.00;43.33;30.00
34176;PMS7003;20450;49.074;9.158;2024-01-30T06:49:25;50.67;42.67;28.33
34176;PMS7003;20450;49.074;9.158;2024-01-30T06:51:53;48.00;39.00;29.00
34176;PMS7003;20450;49.074;9.158;2024-01-30T06:54:19;46.00;39.67;28.00
34176;PMS7003;20450;49.074;9.158;2024-01-30T06:56:48;44.00;38.33;28.00
34176;PMS7003;20450;49.074;9.158;2024-01-30T06:59:16;46.67;38.00;28.00
34176;PMS7003;20450;49.074;9.158;2024-01-30T07:01:43;48.00;39.33;27.33
34176;PMS7003;20450;49.074;9.158;2024-01-30T07:04:11;48.67;39.00;28.00
34176;PMS7003;20450;49.074;9.158;2024-01-30T07:06:41;42.33;35.33;26.00
34176;PMS7003;20450;49.074;9.158;2024-01-30T07:09:08;56.00;44.67;30.00
34176;PMS7003;20450;49.074;9.158;2024-01-30T07:11:35;54.33;43.67;30.00
34176;PMS7003;20450;49.074;9.158;2024-01-30T07:14:02;51.00;42.33;30.00
34176;PMS7003;20450;49.074;9.158;2024-01-30T07:16:30;46.00;39.00;30.00
34176;PMS7003;20450;49.074;9.158;2024-01-30T07:18:57;52.67;44.00;31.67
34176;PMS7003;20450;49.074;9.158;2024-01-30T07:21:25;49.67;41.00;29.00
34176;PMS7003;20450;49.074;9.158;2024-01-30T07:23:52;49.67;39.00;28.67
34176;PMS7003;20450;49.074;9.158;2024-01-30T07:26:19;39.67;35.67;25.33
34176;PMS7003;20450;49.074;9.158;2024-01-30T07:28:46;39.67;33.33;23.67
34176;PMS7003;20450;49.074;9.158;2024-01-30T07:31:13;45.33;35.00;25.33
34176;PMS7003;20450;49.074;9.158;2024-01-30T07:33:42;42.67;37.00;27.33
34176;PMS7003;20450;49.074;9.158;2024-01-30T07:36:09;46.00;40.67;28.00
34176;PMS7003;20450;49.074;9.158;2024-01-30T07:38:36;43.25;37.50;27.25
34176;PMS7003;20450;49.074;9.158;2024-01-30T07:41:03;41.00;38.00;27.00
34176;PMS7003;20450;49.074;9.158;2024-01-30T07:43:30;42.75;37.00;26.00
34176;PMS7003;20450;49.074;9.158;2024-01-30T07:46:00;45.00;37.33;26.33
34176;PMS7003;20450;49.074;9.158;2024-01-30T07:48:28;42.25;36.50;26.00
34176;PMS7003;20450;49.074;9.158;2024-01-30T07:50:56;38.50;33.75;25.00
34176;PMS7003;20450;49.074;9.158;2024-01-30T07:53:23;46.25;37.00;26.00
34176;PMS7003;20450;49.074;9.158;2024-01-30T07:55:51;41.75;37.50;27.00
34176;PMS7003;20450;49.074;9.158;2024-01-30T07:58:18;49.00;40.00;29.00
34176;PMS7003;20450;49.074;9.158;2024-01-30T08:00:45;36.25;35.75;21.00
34176;PMS7003;20450;49.074;9.158;2024-01-30T08:03:12;32.75;32.75;21.75
34176;PMS7003;20450;49.074;9.158;2024-01-30T08:05:39;30.75;28.00;20.50
34176;PMS7003;20450;49.074;9.158;2024-01-30T08:08:08;28.50;24.00;18.00
34176;PMS7003;20450;49.074;9.158;2024-01-30T08:10:35;21.75;18.25;11.50
34176;PMS7003;20450;49.074;9.158;2024-01-30T08:13:02;32.25;32.25;22.25
34176;PMS7003;20450;49.074;9.158;2024-01-30T08:15:29;30.25;27.75;16.50
34176;PMS7003;20450;49.074;9.158;2024-01-30T08:17:56;33.75;33.50;19.00
34176;PMS7003;20450;49.074;9.158;2024-01-30T08:20:24;43.25;36.50;25.00
34176;PMS7003;20450;49.074;9.158;2024-01-30T08:22:51;44.50;38.25;25.00
34176;PMS7003;20450;49.074;9.158;2024-01-30T08:25:19;61.00;51.50;34.50
34176;PMS7003;20450;49.074;9.158;2024-01-30T08:27:47;67.50;52.00;34.00
34176;PMS7003;20450;49.074;9.158;2024-01-30T08:30:14;42.50;36.00;22.00
34176;PMS7003;20450;49.074;9.158;2024-01-30T08:32:42;50.75;44.25;27.00
34176;PMS7003;20450;49.074;9.158;2024-01-30T08:35:09;50.25;43.75;30.00
34176;PMS7003;20450;49.074;9.158;2024-01-30T08:37:38;57.25;49.50;33.25
34176;PMS7003;20450;49.074;9.158;2024-01-30T08:40:06;46.25;45.25;30.00
34176;PMS7003;20450;49.074;9.158;2024-01-30T08:42:35;53.50;45.25;30.50
34176;PMS7003;20450;49.074;9.158;2024-01-30T08:45:02;29.00;28.25;22.00
34176;PMS7003;20450;49.074;9.158;2024-01-30T08:47:30;20.00;19.75;13.00
34176;PMS7003;20450;49.074;9.158;2024-01-30T08:49:57;22.50;19.00;14.50
34176;PMS7003;20450;49.074;9.158;2024-01-30T08:52:24;30.00;26.25;21.75
34176;PMS7003;20450;49.074;9.158;2024-01-30T08:54:51;26.50;24.25;19.50
34176;PMS7003;20450;49.074;9.158;2024-01-30T08:57:18;27.75;25.25;20.25
34176;PMS7003;20450;49.074;9.158;2024-01-30T08:59:47;22.75;21.50;18.50
34176;PMS7003;20450;49.074;9.158;2024-01-30T09:02:14;21.75;21.75;18.50
34176;PMS7003;20450;49.074;9.158;2024-01-30T09:04:41;25.25;23.75;19.00
34176;PMS7003;20450;49.074;9.158;2024-01-30T09:07:09;30.00;29.50;22.00
34176;PMS7003;20450;49.074;9.158;2024-01-30T09:09:37;20.75;19.75;16.75
34176;PMS7003;20450;49.074;9.158;2024-01-30T09:12:05;23.75;23.75;19.00
34176;PMS7003;20450;49.074;9.158;2024-01-30T09:14:33;21.25;18.75;12.00
34176;PMS7003;20450;49.074;9.158;2024-01-30T09:17:01;19.75;17.00;11.50
34176;PMS7003;20450;49.074;9.158;2024-01-30T09:19:28;22.75;21.50;14.50
34176;PMS7003;20450;49.074;9.158;2024-01-30T09:21:56;29.25;27.00;17.50
34176;PMS7003;20450;49.074;9.158;2024-01-30T09:24:23;33.25;30.00;20.50
34176;PMS7003;20450;49.074;9.158;2024-01-30T09:26:50;25.75;24.25;18.25
34176;PMS7003;20450;49.074;9.158;2024-01-30T09:29:17;33.50;27.75;20.00
34176;PMS7003;20450;49.074;9.158;2024-01-30T09:31:44;30.00;26.50;21.25
34176;PMS7003;20450;49.074;9.158;2024-01-30T09:34:13;29.00;24.75;18.25
34176;PMS7003;20450;49.074;9.158;2024-01-30T09:36:40;25.50;25.50;21.00
34176;PMS7003;20450;49.074;9.158;2024-01-30T09:39:07;32.25;25.50;20.50
34176;PMS7003;20450;49.074;9.158;2024-01-30T09:41:36;24.00;21.50;17.00
34176;PMS7003;20450;49.074;9.158;2024-01-30T09:44:15;25.50;24.00;16.00
34176;PMS7003;20450;49.074;9.158;2024-01-30T09:46:43;21.50;20.00;15.00
34176;PMS7003;20450;49.074;9.158;2024-01-30T09:49:15;18.50;18.50;14.00
34176;PMS7003;20450;49.074;9.158;2024-01-30T09:51:44;30.25;25.00;17.50
34176;PMS7003;20450;49.074;9.158;2024-01-30T09:54:12;24.75;21.00;15.00
34176;PMS7003;20450;49.074;9.158;2024-01-30T09:56:41;27.75;22.50;17.00
34176;PMS7003;20450;49.074;9.158;2024-01-30T09:59:08;21.50;21.50;16.50
34176;PMS7003;20450;49.074;9.158;2024-01-30T10:01:35;24.75;24.75;18.25
34176;PMS7003;20450;49.074;9.158;2024-01-30T10:04:04;20.00;15.00;14.50
34176;PMS7003;20450;49.074;9.158;2024-01-30T10:06:33;25.25;23.00;15.25
34176;PMS7003;20450;49.074;9.158;2024-01-30T10:09:01;22.25;21.50;15.50
34176;PMS7003;20450;49.074;9.158;2024-01-30T10:11:28;22.00;21.00;16.00
34176;PMS7003;20450;49.074;9.158;2024-01-30T10:13:55;23.50;20.50;15.25
34176;PMS7003;20450;49.074;9.158;2024-01-30T10:16:22;24.75;20.00;16.00
34176;PMS7003;20450;49.074;9.158;2024-01-30T10:18:49;24.75;22.50;16.00
34176;PMS7003;20450;49.074;9.158;2024-01-30T10:21:16;24.75;21.50;15.00
34176;PMS7003;20450;49.074;9.158;2024-01-30T10:23:44;25.00;23.50;15.50
34176;PMS7003;20450;49.074;9.158;2024-01-30T10:26:11;26.00;24.00;18.00
34176;PMS7003;20450;49.074;9.158;2024-01-30T10:28:39;21.50;18.50;12.50
34176;PMS7003;20450;49.074;9.158;2024-01-30T10:31:05;25.00;20.50;13.00
34176;PMS7003;20450;49.074;9.158;2024-01-30T10:33:33;27.25;25.25;19.50
34176;PMS7003;20450;49.074;9.158;2024-01-30T10:36:01;26.75;24.75;16.00
34176;PMS7003;20450;49.074;9.158;2024-01-30T10:38:29;26.75;25.25;17.00
34176;PMS7003;20450;49.074;9.158;2024-01-30T10:41:00;28.50;23.00;16.50
34176;PMS7003;20450;49.074;9.158;2024-01-30T10:43:30;20.00;18.25;15.00
34176;PMS7003;20450;49.074;9.158;2024-01-30T10:46:01;24.25;21.75;15.75
34176;PMS7003;20450;49.074;9.158;2024-01-30T10:48:36;18.25;17.50;13.50
34176;PMS7003;20450;49.074;9.158;2024-01-30T10:51:12;26.50;26.50;20.50
34176;PMS7003;20450;49.074;9.158;2024-01-30T10:53:42;25.25;25.25;18.75
34176;PMS7003;20450;49.074;9.158;2024-01-30T10:56:14;22.50;21.25;15.25
34176;PMS7003;20450;49.074;9.158;2024-01-30T10:58:43;23.00;20.00;15.75
34176;PMS7003;20450;49.074;9.158;2024-01-30T11:01:10;28.25;24.50;18.75
34176;PMS7003;20450;49.074;9.158;2024-01-30T11:03:39;24.00;21.00;13.50
34176;PMS7003;20450;49.074;9.158;2024-01-30T11:06:10;27.25;25.50;19.00
34176;PMS7003;20450;49.074;9.158;2024-01-30T11:08:38;23.25;22.00;15.25
34176;PMS7003;20450;49.074;9.158;2024-01-30T11:11:08;31.50;27.50;17.50
34176;PMS7003;20450;49.074;9.158;2024-01-30T11:13:37;29.75;26.75;20.00
34176;PMS7003;20450;49.074;9.158;2024-01-30T11:16:05;27.50;27.50;17.00
34176;PMS7003;20450;49.074;9.158;2024-01-30T11:18:33;35.75;33.00;24.25
34176;PMS7003;20450;49.074;9.158;2024-01-30T11:21:04;36.00;31.25;20.00
34176;PMS7003;20450;49.074;9.158;2024-01-30T11:23:32;35.00;32.00;23.00
34176;PMS7003;20450;49.074;9.158;2024-01-30T11:26:00;23.75;20.50;16.25
34176;PMS7003;20450;49.074;9.158;2024-01-30T11:28:31;29.50;19.50;16.00
34176;PMS7003;20450;49.074;9.158;2024-01-30T11:31:04;27.25;25.00;20.50
34176;PMS7003;20450;49.074;9.158;2024-01-30T11:33:34;31.75;27.25;19.00
34176;PMS7003;20450;49.074;9.158;2024-01-30T11:36:02;27.50;21.00;16.00
34176;PMS7003;20450;49.074;9.158;2024-01-30T11:38:30;31.75;30.50;21.00
34176;PMS7003;20450;49.074;9.158;2024-01-30T11:40:57;24.75;24.25;19.00
34176;PMS7003;20450;49.074;9.158;2024-01-30T11:43:25;31.75;29.00;20.00
34176;PMS7003;20450;49.074;9.158;2024-01-30T11:45:52;28.00;23.00;16.00
34176;PMS7003;20450;49.074;9.158;2024-01-30T11:48:20;30.75;27.25;18.50
34176;PMS7003;20450;49.074;9.158;2024-01-30T11:50:48;27.25;23.00;18.25
34176;PMS7003;20450;49.074;9.158;2024-01-30T11:53:15;27.50;25.00;18.00
34176;PMS7003;20450;49.074;9.158;2024-01-30T11:55:42;32.25;30.00;19.50
34176;PMS7003;20450;49.074;9.158;2024-01-30T11:58:16;24.00;23.00;17.00
34176;PMS7003;20450;49.074;9.158;2024-01-30T12:00:52;30.75;26.00;19.00
34176;PMS7003;20450;49.074;9.158;2024-01-30T12:03:22;32.75;26.75;18.00
34176;PMS7003;20450;49.074;9.158;2024-01-30T12:05:54;23.00;23.00;16.50
34176;PMS7003;20450;49.074;9.158;2024-01-30T12:08:22;22.00;21.00;15.75
34176;PMS7003;20450;49.074;9.158;2024-01-30T12:10:54;25.00;19.50;16.50
34176;PMS7003;20450;49.074;9.158;2024-01-30T12:13:22;29.00;26.50;21.50
34176;PMS7003;20450;49.074;9.158;2024-01-30T12:15:50;31.75;27.00;18.75
34176;PMS7003;20450;49.074;9.158;2024-01-30T12:18:18;27.25;26.75;18.75
34176;PMS7003;20450;49.074;9.158;2024-01-30T12:20:57;29.25;25.50;18.50
34176;PMS7003;20450;49.074;9.158;2024-01-30T12:23:24;25.00;21.00;18.50
34176;PMS7003;20450;49.074;9.158;2024-01-30T12:25:52;24.75;22.00;19.00
34176;PMS7003;20450;49.074;9.158;2024-01-30T12:28:22;33.25;27.00;18.00
34176;PMS7003;20450;49.074;9.158;2024-01-30T12:30:49;22.50;21.75;16.00
34176;PMS7003;20450;49.074;9.158;2024-01-30T12:33:16;24.00;24.00;18.25
34176;PMS7003;20450;49.074;9.158;2024-01-30T12:35:45;29.50;25.75;19.50
34176;PMS7003;20450;49.074;9.158;2024-01-30T12:38:29;29.75;26.00;19.50
34176;PMS7003;20450;49.074;9.158;2024-01-30T12:40:56;27.50;24.00;18.00
34176;PMS7003;20450;49.074;9.158;2024-01-30T12:43:23;29.00;26.50;18.50
34176;PMS7003;20450;49.074;9.158;2024-01-30T12:46:03;31.50;30.50;22.00
34176;PMS7003;20450;49.074;9.158;2024-01-30T12:48:31;23.75;23.00;17.50
34176;PMS7003;20450;49.074;9.158;2024-01-30T12:50:58;30.00;26.00;18.25
34176;PMS7003;20450;49.074;9.158;2024-01-30T12:53:26;32.00;26.75;18.00
34176;PMS7003;20450;49.074;9.158;2024-01-30T12:55:54;22.00;19.00;13.50
34176;PMS7003;20450;49.074;9.158;2024-01-30T12:58:21;24.00;21.75;16.00
34176;PMS7003;20450;49.074;9.158;2024-01-30T13:00:48;28.25;25.25;15.75
34176;PMS7003;20450;49.074;9.158;2024-01-30T13:03:16;29.50;27.50;18.25
34176;PMS7003;20450;49.074;9.158;2024-01-30T13:05:43;30.75;27.00;18.50
34176;PMS7003;20450;49.074;9.158;2024-01-30T13:08:10;28.00;22.50;19.00
34176;PMS7003;20450;49.074;9.158;2024-01-30T13:10:46;38.75;30.00;19.00
34176;PMS7003;20450;49.074;9.158;2024-01-30T13:13:21;29.50;27.50;18.75
34176;PMS7003;20450;49.074;9.158;2024-01-30T13:15:52;29.50;27.00;20.00
34176;PMS7003;20450;49.074;9.158;2024-01-30T13:18:19;27.75;22.50;14.50
34176;PMS7003;20450;49.074;9.158;2024-01-30T13:20:46;25.75;25.00;17.75
34176;PMS7003;20450;49.074;9.158;2024-01-30T13:23:14;27.00;26.00;18.75
34176;PMS7003;20450;49.074;9.158;2024-01-30T13:25:41;31.25;27.00;18.25
34176;PMS7003;20450;49.074;9.158;2024-01-30T13:28:08;32.00;28.25;19.75
34176;PMS7003;20450;49.074;9.158;2024-01-30T13:30:36;30.50;25.50;18.00
34176;PMS7003;20450;49.074;9.158;2024-01-30T13:33:03;30.25;25.50;18.00
34176;PMS7003;20450;49.074;9.158;2024-01-30T13:35:31;30.25;27.75;18.75
34176;PMS7003;20450;49.074;9.158;2024-01-30T13:37:59;27.75;24.75;16.25
34176;PMS7003;20450;49.074;9.158;2024-01-30T13:40:26;25.25;22.25;15.00
34176;PMS7003;20450;49.074;9.158;2024-01-30T13:42:53;24.50;23.50;15.50
34176;PMS7003;20450;49.074;9.158;2024-01-30T13:45:20;27.75;24.00;18.00
34176;PMS7003;20450;49.074;9.158;2024-01-30T13:47:52;31.50;29.75;21.25
34176;PMS7003;20450;49.074;9.158;2024-01-30T13:50:20;31.50;28.00;20.50